Time;durP1;ratioP1;P1;durP2;ratioP2;P2;SDS_P1;SDS_P2;PMS_P1;PMS_P2;Temp;Humidity;BMP_temperature;BMP_pressure;BME280_temperature;BME280_humidity;BME280_pressure;Samples;Min_cycle;Max_cycle;Signal;HPM_P1;HPM_P2
2022/07/15 00:00:15;;;;;;;4.88;0.80;;;;;;;15.37;89.08;102303.69;5012408;28;20056;-34
2022/07/15 00:02:43;;;;;;;5.38;0.75;;;;;;;15.41;89.47;102305.59;5012736;28;20060;-38
2022/07/15 00:05:13;;;;;;;4.20;0.90;;;;;;;15.46;90.01;102302.72;5011054;28;20399;-38
2022/07/15 00:07:40;;;;;;;4.07;1.02;;;;;;;15.48;90.22;102306.09;5012678;28;20046;-31
2022/07/15 00:10:15;;;;;;;3.03;0.70;;;;;;;15.51;90.42;102302.69;5011984;28;20119;-39
2022/07/15 00:12:43;;;;;;;3.42;0.68;;;;;;;15.55;90.45;102305.75;5011825;28;20054;-38
2022/07/15 00:15:11;;;;;;;5.63;0.90;;;;;;;15.60;90.45;102302.06;5011831;28;20507;-36
2022/07/15 00:17:40;;;;;;;4.85;0.73;;;;;;;15.61;90.88;102307.38;5011870;28;20053;-30
2022/07/15 00:20:10;;;;;;;6.18;0.77;;;;;;;15.64;91.24;102298.34;5011137;28;20137;-38
2022/07/15 00:22:40;;;;;;;3.80;0.60;;;;;;;15.64;91.38;102303.97;5012566;28;20041;-36
2022/07/15 00:25:09;;;;;;;3.25;0.70;;;;;;;15.63;91.14;102293.84;5011153;28;20551;-33
2022/07/15 00:27:50;;;;;;;3.58;0.77;;;;;;;15.64;90.90;102295.53;5011880;28;20041;-31
2022/07/15 00:30:18;;;;;;;3.20;0.70;;;;;;;15.63;90.88;102302.31;5011696;28;20483;-31
2022/07/15 00:32:47;;;;;;;5.20;0.70;;;;;;;15.64;91.09;102297.50;5011508;28;20047;-31
2022/07/15 00:35:16;;;;;;;5.95;0.80;;;;;;;15.67;91.16;102303.38;5011856;28;20050;-38
2022/07/15 00:37:45;;;;;;;5.63;0.82;;;;;;;15.70;91.15;102304.78;5007249;28;20046;-38
2022/07/15 00:40:13;;;;;;;4.55;0.77;;;;;;;15.69;90.64;102301.13;5009876;28;20077;-39
2022/07/15 00:42:46;;;;;;;3.92;0.70;;;;;;;15.70;90.16;102293.50;5011542;28;20136;-37
2022/07/15 00:45:16;;;;;;;4.07;0.85;;;;;;;15.69;89.25;102294.66;5011706;28;20045;-32
2022/07/15 00:47:46;;;;;;;4.10;0.95;;;;;;;15.69;88.80;102291.84;5010956;28;20038;-30
2022/07/15 00:50:15;;;;;;;4.20;0.70;;;;;;;15.70;88.55;102304.78;5010483;28;20056;-38
2022/07/15 00:52:49;;;;;;;6.15;0.80;;;;;;;15.67;88.24;102297.75;5011776;28;20100;-35
2022/07/15 00:55:19;;;;;;;4.60;0.90;;;;;;;15.64;88.18;102303.97;4992893;28;20066;-33
2022/07/15 00:57:47;;;;;;;3.35;0.60;;;;;;;15.61;88.07;102293.31;5008271;28;20061;-33
2022/07/15 01:00:16;;;;;;;3.85;0.77;;;;;;;15.62;88.24;102297.81;5011878;28;20060;-30
2022/07/15 01:02:50;;;;;;;3.70;0.80;;;;;;;15.61;88.13;102300.91;5011403;28;20092;-30
2022/07/15 01:05:20;;;;;;;5.93;0.90;;;;;;;15.58;88.09;102299.56;5010410;28;20046;-39
2022/07/15 01:07:50;;;;;;;5.75;0.82;;;;;;;15.57;88.29;102303.50;4996653;28;20174;-36
2022/07/15 01:10:21;;;;;;;4.47;0.85;;;;;;;15.54;88.35;102297.59;5007337;28;20550;-35
2022/07/15 01:12:50;;;;;;;5.65;0.80;;;;;;;15.50;88.58;102301.00;4998873;28;20068;-38
2022/07/15 01:15:25;;;;;;;5.78;1.15;;;;;;;15.47;88.87;102298.78;5005896;28;20053;-32
2022/07/15 01:17:53;;;;;;;5.30;0.80;;;;;;;15.44;89.16;102295.72;5011193;28;20387;-34
2022/07/15 01:20:22;;;;;;;1.95;0.63;;;;;;;15.38;89.24;102300.59;5015908;28;20045;-30
2022/07/15 01:22:58;;;;;;;4.68;0.90;;;;;;;15.33;89.59;102295.00;5009190;28;20125;-31
2022/07/15 01:25:47;;;;;;;3.92;0.73;;;;;;;15.26;89.69;102294.50;5011353;28;20064;-35
2022/07/15 01:28:15;;;;;;;3.67;0.70;;;;;;;15.22;89.64;102290.59;5009863;28;20057;-33
2022/07/15 01:30:43;;;;;;;3.97;0.80;;;;;;;15.18;89.51;102294.31;5009711;28;20132;-30
2022/07/15 01:33:15;;;;;;;3.53;0.63;;;;;;;15.12;89.68;102301.94;5000847;28;20054;-30
2022/07/15 01:35:43;;;;;;;1.83;0.43;;;;;;;15.08;89.48;102293.25;5003891;28;20054;-31
2022/07/15 01:38:12;;;;;;;3.63;1.05;;;;;;;15.04;89.49;102292.16;5011064;28;20042;-31
2022/07/15 01:40:40;;;;;;;2.03;0.63;;;;;;;14.98;89.48;102296.19;5006875;28;20097;-33
2022/07/15 01:43:09;;;;;;;2.60;0.50;;;;;;;14.94;89.50;102292.25;5001118;28;20042;-33
2022/07/15 01:45:37;;;;;;;3.17;0.70;;;;;;;14.89;89.53;102297.09;5007092;28;20078;-30
2022/07/15 01:48:06;;;;;;;2.53;0.60;;;;;;;14.84;89.38;102300.75;5000008;28;20046;-31
2022/07/15 01:50:46;;;;;;;2.42;0.70;;;;;;;14.76;89.53;102299.44;5005031;28;20042;-31
2022/07/15 01:53:20;;;;;;;2.42;0.50;;;;;;;14.71;89.69;102299.47;5023080;28;20096;-33
2022/07/15 01:55:49;;;;;;;1.27;0.40;;;;;;;14.67;89.63;102300.34;5003568;28;20420;-32
2022/07/15 01:58:17;;;;;;;1.98;0.50;;;;;;;14.62;89.51;102298.38;5005079;28;20046;-31
2022/07/15 02:00:45;;;;;;;2.53;0.50;;;;;;;14.56;89.74;102299.59;5013543;28;20049;-32
2022/07/15 02:03:13;;;;;;;2.63;0.50;;;;;;;14.51;89.75;102296.78;5013092;28;20054;-32
2022/07/15 02:05:41;;;;;;;1.02;0.30;;;;;;;14.46;90.04;102299.63;5013793;28;20113;-31
2022/07/15 02:08:09;;;;;;;2.50;0.60;;;;;;;14.40;89.92;102295.13;5009502;28;20904;-31
2022/07/15 02:10:44;;;;;;;3.33;0.55;;;;;;;14.35;90.13;102298.00;5012190;28;20084;-31
2022/07/15 02:13:16;;;;;;;2.90;0.43;;;;;;;14.27;90.25;102292.97;5013420;28;20423;-33
2022/07/15 02:15:48;;;;;;;2.65;0.68;;;;;;;14.23;90.42;102291.88;5016198;28;20053;-33
2022/07/15 02:18:16;;;;;;;4.55;0.60;;;;;;;14.18;90.42;102303.97;5012069;28;20581;-36
2022/07/15 02:20:46;;;;;;;2.85;0.40;;;;;;;14.16;90.77;102299.78;5024351;28;20414;-33
2022/07/15 02:23:14;;;;;;;1.60;0.38;;;;;;;14.11;90.85;102300.63;5014274;28;20077;-38
2022/07/15 02:25:42;;;;;;;2.05;0.40;;;;;;;14.07;90.89;102302.34;5013391;28;20415;-35
2022/07/15 02:28:11;;;;;;;3.05;0.50;;;;;;;14.04;91.25;102302.91;5012816;28;20096;-38
2022/07/15 02:30:41;;;;;;;1.67;0.40;;;;;;;14.00;91.25;102301.78;5011920;28;20470;-39
2022/07/15 02:33:13;;;;;;;2.03;0.40;;;;;;;13.95;91.45;102302.69;5008753;28;20566;-37
2022/07/15 02:35:42;;;;;;;2.08;0.60;;;;;;;13.91;91.62;102295.94;5012709;28;20053;-32
2022/07/15 02:38:12;;;;;;;1.70;0.40;;;;;;;13.89;91.85;102297.38;5009498;28;20050;-36
2022/07/15 02:40:41;;;;;;;2.55;0.50;;;;;;;13.84;92.30;102305.78;5008719;28;20069;-38
2022/07/15 02:43:13;;;;;;;1.87;0.50;;;;;;;13.79;92.10;102304.69;5009412;28;20108;-35
2022/07/15 02:45:44;;;;;;;3.50;0.80;;;;;;;13.74;92.29;102304.72;5008668;28;20295;-41
2022/07/15 02:48:16;;;;;;;4.25;0.57;;;;;;;13.71;92.69;102310.06;5013851;28;20326;-35
2022/07/15 02:50:46;;;;;;;1.63;0.40;;;;;;;13.67;92.92;102306.97;5022428;28;20046;-35
2022/07/15 02:53:18;;;;;;;3.42;0.52;;;;;;;13.65;93.15;102299.97;5011646;28;20057;-38
2022/07/15 02:55:45;;;;;;;2.50;0.52;;;;;;;13.62;93.34;102306.97;5003198;28;20141;-35
2022/07/15 02:58:15;;;;;;;2.22;0.60;;;;;;;13.59;93.80;102303.94;5003910;28;20081;-38
2022/07/15 03:00:42;;;;;;;2.30;0.50;;;;;;;13.56;93.82;102307.28;5002423;28;20411;-37
2022/07/15 03:03:10;;;;;;;1.42;0.47;;;;;;;13.54;93.89;102315.16;5001596;28;20049;-37
2022/07/15 03:05:40;;;;;;;1.50;0.50;;;;;;;13.51;94.13;102322.16;5006643;28;20413;-39
2022/07/15 03:08:10;;;;;;;3.22;0.40;;;;;;;13.47;94.09;102314.59;5002538;28;20097;-37
2022/07/15 03:10:39;;;;;;;4.32;0.90;;;;;;;13.43;94.40;102315.16;5000198;28;20069;-42
2022/07/15 03:13:07;;;;;;;2.97;0.60;;;;;;;13.40;94.64;102315.72;5013636;28;20056;-37
2022/07/15 03:15:37;;;;;;;2.00;0.57;;;;;;;13.37;94.92;102321.91;5012319;28;20048;-37
2022/07/15 03:18:05;;;;;;;2.35;0.57;;;;;;;13.34;95.16;102327.25;5016516;28;20540;-38
2022/07/15 03:20:33;;;;;;;2.08;0.50;;;;;;;13.30;95.08;102331.72;5012989;28;20490;-34
2022/07/15 03:23:02;;;;;;;1.92;0.35;;;;;;;13.27;95.55;102329.47;5010597;28;20503;-37
2022/07/15 03:25:31;;;;;;;2.22;0.40;;;;;;;13.21;95.73;102323.03;5011358;28;20511;-37
2022/07/15 03:28:05;;;;;;;2.22;0.60;;;;;;;13.18;95.86;102326.41;4998202;28;20152;-32
2022/07/15 03:30:38;;;;;;;;;;;;;;;13.09;95.99;102328.06;5011984;28;20056;-32
2022/07/15 03:33:06;;;;;;;1.42;0.40;;;;;;;13.02;96.45;102324.69;5010346;28;19980;-32
2022/07/15 03:35:33;;;;;;;2.67;0.47;;;;;;;13.03;96.43;102331.97;4989534;28;20531;-40
2022/07/15 03:38:02;;;;;;;1.25;0.40;;;;;;;13.00;96.69;102324.13;5000984;28;20145;-34
2022/07/15 03:40:30;;;;;;;3.17;0.50;;;;;;;12.98;96.83;102329.19;4992517;28;20054;-34
2022/07/15 03:42:57;;;;;;;1.13;0.30;;;;;;;12.94;97.10;102333.66;5009686;28;20104;-33
2022/07/15 03:45:25;;;;;;;1.98;0.40;;;;;;;12.90;97.36;102335.34;5011396;28;20053;-38
2022/07/15 03:47:55;;;;;;;2.33;0.40;;;;;;;12.88;97.31;102345.97;5000309;28;20049;-34
2022/07/15 03:50:22;;;;;;;3.58;0.52;;;;;;;12.84;97.66;102345.69;5005577;28;20049;-36
2022/07/15 03:52:50;;;;;;;0.82;0.38;;;;;;;12.82;97.76;102345.13;5010858;28;20046;-35
2022/07/15 03:55:18;;;;;;;2.05;0.40;;;;;;;12.80;98.02;102343.72;5011488;28;20084;-38
2022/07/15 03:57:46;;;;;;;2.13;0.40;;;;;;;12.77;98.08;102343.19;5009753;28;20054;-34
2022/07/15 04:00:14;;;;;;;1.60;0.30;;;;;;;12.76;98.38;102351.84;5007760;28;20420;-40
2022/07/15 04:02:42;;;;;;;2.63;0.40;;;;;;;12.74;98.34;102352.13;5003617;28;20092;-35
2022/07/15 04:05:16;;;;;;;2.78;0.35;;;;;;;12.74;98.61;102351.28;5013023;28;20141;-31
2022/07/15 04:07:44;;;;;;;1.52;0.40;;;;;;;12.72;98.56;102354.38;5002474;28;20095;-34
2022/07/15 04:10:12;;;;;;;1.70;0.40;;;;;;;12.72;98.67;102354.38;5011907;28;20072;-34
2022/07/15 04:12:42;;;;;;;2.65;0.47;;;;;;;12.72;98.63;102356.31;5010662;28;20049;-34
2022/07/15 04:15:15;;;;;;;1.15;0.30;;;;;;;12.72;99.01;102343.16;5000538;28;20062;-34
2022/07/15 04:17:45;;;;;;;1.10;0.30;;;;;;;12.72;99.08;102348.75;4997372;28;20054;-32
2022/07/15 04:20:18;;;;;;;1.25;0.30;;;;;;;12.72;99.31;102350.72;5004226;28;20468;-37
2022/07/15 04:22:48;;;;;;;2.08;0.40;;;;;;;12.71;99.59;102346.22;4997410;28;20650;-35
2022/07/15 04:25:18;;;;;;;1.92;0.50;;;;;;;12.72;99.63;102347.91;5011124;28;20038;-36
2022/07/15 04:27:48;;;;;;;3.78;0.45;;;;;;;12.73;99.71;102356.03;5012142;28;20387;-34
2022/07/15 04:30:17;;;;;;;1.25;0.40;;;;;;;12.73;99.87;102353.25;4997725;28;20507;-40
2022/07/15 04:32:48;;;;;;;1.35;0.30;;;;;;;12.73;100.00;102353.25;5009591;28;20049;-38
2022/07/15 04:35:19;;;;;;;2.17;0.47;;;;;;;12.78;100.00;102360.81;5021793;28;20060;-32
2022/07/15 04:37:53;;;;;;;0.93;0.30;;;;;;;12.81;100.00;102362.19;5010558;28;20057;-40
2022/07/15 04:40:21;;;;;;;2.83;0.40;;;;;;;12.84;100.00;102367.25;4997441;28;20760;-37
2022/07/15 04:42:51;;;;;;;2.00;0.40;;;;;;;12.88;100.00;102374.84;5010743;28;20141;-40
2022/07/15 04:45:19;;;;;;;2.20;0.40;;;;;;;12.93;100.00;102372.03;5010184;28;20058;-38
2022/07/15 04:47:48;;;;;;;3.58;0.50;;;;;;;12.96;100.00;102368.69;5010712;28;20054;-40
2022/07/15 04:50:45;;;;;;;4.40;0.75;;;;;;;13.03;100.00;102372.03;5010509;28;20092;-30
2022/07/15 04:53:13;;;;;;;2.70;0.50;;;;;;;13.10;100.00;102375.41;4991232;28;20141;-34
2022/07/15 04:55:45;;;;;;;2.00;0.38;;;;;;;13.18;100.00;102376.03;5010539;28;20101;-34
2022/07/15 04:58:14;;;;;;;1.38;0.35;;;;;;;13.25;100.00;102368.16;4999913;28;20043;-35
2022/07/15 05:00:44;;;;;;;3.55;0.40;;;;;;;13.35;100.00;102379.38;5001275;28;20068;-37
2022/07/15 05:03:14;;;;;;;3.13;0.45;;;;;;;13.42;100.00;102371.50;4991097;28;20416;-39
2022/07/15 05:05:43;;;;;;;2.42;0.40;;;;;;;13.48;100.00;102372.34;5008961;28;20575;-39
2022/07/15 05:08:16;;;;;;;1.23;0.30;;;;;;;13.53;100.00;102373.19;5012628;28;20050;-35
2022/07/15 05:10:49;;;;;;;1.67;0.38;;;;;;;13.59;100.00;102368.44;4998165;28;20120;-39
2022/07/15 05:13:17;;;;;;;2.22;0.30;;;;;;;13.63;100.00;102375.13;5004424;28;20056;-35
2022/07/15 05:15:47;;;;;;;3.17;0.30;;;;;;;13.68;100.00;102363.91;5004144;28;20412;-35
2022/07/15 05:18:20;;;;;;;2.20;0.30;;;;;;;13.74;100.00;102374.00;5001452;28;20081;-33
2022/07/15 05:20:51;;;;;;;1.35;0.30;;;;;;;13.80;99.95;102370.06;5004335;28;20857;-31
2022/07/15 05:23:19;;;;;;;5.20;0.70;;;;;;;13.87;99.88;102367.81;5006392;28;20051;-39
2022/07/15 05:25:53;;;;;;;2.35;0.47;;;;;;;13.95;99.97;102367.22;5003989;28;20076;-34
2022/07/15 05:28:21;;;;;;;1.65;0.30;;;;;;;14.04;99.95;102370.28;5006099;28;20054;-31
2022/07/15 05:30:50;;;;;;;3.72;0.43;;;;;;;14.09;100.00;102368.28;5004500;28;20155;-35
2022/07/15 05:33:19;;;;;;;2.75;0.40;;;;;;;14.17;99.96;102363.22;5014083;28;20096;-30
2022/07/15 05:35:48;;;;;;;1.70;0.30;;;;;;;14.24;99.97;102369.34;5010907;28;20136;-33
2022/07/15 05:38:24;;;;;;;2.35;0.30;;;;;;;14.31;99.48;102369.91;5002494;28;20479;-38
2022/07/15 05:40:53;;;;;;;2.92;0.55;;;;;;;14.36;99.13;102365.09;5007104;28;20078;-41
2022/07/15 05:43:23;;;;;;;2.38;0.40;;;;;;;14.42;98.59;102377.16;5011990;28;20084;-42
2022/07/15 05:45:51;;;;;;;2.72;0.32;;;;;;;14.48;98.00;102376.03;5012096;28;20467;-31
2022/07/15 05:48:20;;;;;;;2.60;0.25;;;;;;;14.55;97.77;102370.09;5017622;28;20050;-37
2022/07/15 05:50:52;;;;;;;1.57;0.20;;;;;;;14.60;97.25;102373.69;5011213;28;20085;-36
2022/07/15 05:53:21;;;;;;;1.88;0.30;;;;;;;14.67;97.06;102363.00;5012309;28;20482;-39
2022/07/15 05:55:52;;;;;;;2.80;0.30;;;;;;;14.75;96.80;102365.19;5013054;28;20152;-34
2022/07/15 05:58:22;;;;;;;1.30;0.30;;;;;;;14.81;96.59;102363.16;5012188;28;20410;-33
2022/07/15 06:00:51;;;;;;;3.22;0.50;;;;;;;14.90;96.03;102366.22;5012270;28;20052;-31
2022/07/15 06:03:20;;;;;;;1.67;0.30;;;;;;;14.96;95.53;102365.91;5011188;28;20046;-39
2022/07/15 06:05:48;;;;;;;1.02;0.30;;;;;;;15.01;95.03;102365.00;5012302;28;20057;-33
2022/07/15 06:08:17;;;;;;;2.53;0.30;;;;;;;15.10;94.73;102371.69;5012054;28;20525;-39
2022/07/15 06:10:46;;;;;;;1.80;0.30;;;;;;;15.18;94.63;102359.84;5011378;28;20100;-36
2022/07/15 06:13:16;;;;;;;1.67;0.20;;;;;;;15.25;93.70;102357.50;5013338;28;20128;-31
2022/07/15 06:15:46;;;;;;;1.30;0.30;;;;;;;15.33;93.21;102356.88;4994444;28;20050;-37
2022/07/15 06:18:19;;;;;;;0.90;0.30;;;;;;;15.43;92.79;102353.97;5010277;28;20309;-33
2022/07/15 06:20:49;;;;;;;1.23;0.30;;;;;;;15.55;92.37;102353.59;5012215;28;20417;-39
2022/07/15 06:23:17;;;;;;;1.35;0.20;;;;;;;15.66;92.23;102360.81;5012675;28;20042;-36
2022/07/15 06:25:45;;;;;;;1.10;0.30;;;;;;;15.80;91.97;102363.75;5012549;28;20090;-34
2022/07/15 06:28:13;;;;;;;0.80;0.15;;;;;;;15.99;91.28;102359.03;5012755;28;20052;-31
2022/07/15 06:30:43;;;;;;;2.30;0.30;;;;;;;16.25;90.82;102372.81;5008843;28;20042;-36
2022/07/15 06:33:10;;;;;;;2.03;0.30;;;;;;;16.42;89.54;102371.16;5007695;28;20052;-41
2022/07/15 06:35:38;;;;;;;1.13;0.22;;;;;;;16.60;88.72;102377.13;5013965;28;20407;-35
2022/07/15 06:38:12;;;;;;;2.55;0.30;;;;;;;16.75;87.97;102374.16;5012982;28;20049;-36
2022/07/15 06:40:42;;;;;;;1.30;0.20;;;;;;;17.07;87.63;102370.56;5009242;28;20141;-39
2022/07/15 06:43:10;;;;;;;1.70;0.30;;;;;;;17.65;86.25;102373.81;5014950;28;20467;-39
2022/07/15 06:45:56;;;;;;;3.08;0.38;;;;;;;18.30;83.16;102375.66;5012309;28;20061;-36
2022/07/15 06:48:24;;;;;;;2.00;0.40;;;;;;;18.85;80.85;102371.59;5003189;28;20056;-37
2022/07/15 06:50:54;;;;;;;2.53;0.30;;;;;;;19.46;78.89;102370.09;5013736;28;20053;-39
2022/07/15 06:53:22;;;;;;;2.17;0.30;;;;;;;20.23;76.63;102372.53;5012480;28;20073;-33
2022/07/15 06:55:52;;;;;;;1.88;0.40;;;;;;;20.99;72.36;102373.03;5014052;28;20060;-31
2022/07/15 06:58:20;;;;;;;1.40;0.30;;;;;;;21.83;70.41;102373.63;5007721;28;20133;-35
2022/07/15 07:00:48;;;;;;;1.38;0.30;;;;;;;22.76;66.85;102369.84;5005063;28;20085;-31
2022/07/15 07:03:17;;;;;;;1.15;0.20;;;;;;;23.61;63.27;102365.44;4999724;28;20060;-35
2022/07/15 07:06:06;;;;;;;1.42;0.30;;;;;;;24.10;59.40;102376.13;5026812;28;20038;-34
2022/07/15 07:08:35;;;;;;;1.52;0.30;;;;;;;24.32;57.24;102367.97;5011913;28;20083;-31
2022/07/15 07:11:03;;;;;;;1.17;0.38;;;;;;;24.41;55.74;102373.53;5013542;28;20490;-37
2022/07/15 07:13:30;;;;;;;1.23;0.30;;;;;;;24.30;55.20;102367.50;5012434;28;20042;-38
2022/07/15 07:15:58;;;;;;;0.73;0.20;;;;;;;24.12;55.68;102374.59;5013129;28;20125;-34
2022/07/15 07:18:29;;;;;;;1.35;0.32;;;;;;;23.81;55.71;102366.56;5013010;28;20085;-32
2022/07/15 07:20:57;;;;;;;0.98;0.30;;;;;;;23.55;56.11;102366.03;5012242;28;20061;-33
2022/07/15 07:23:26;;;;;;;1.33;0.28;;;;;;;23.33;56.33;102376.59;5012932;28;20045;-41
2022/07/15 07:25:54;;;;;;;1.15;0.30;;;;;;;23.24;56.69;102372.16;5012822;28;20058;-32
2022/07/15 07:28:22;;;;;;;0.77;0.20;;;;;;;23.27;56.43;102365.75;5012286;28;20062;-33
2022/07/15 07:30:52;;;;;;;1.10;0.30;;;;;;;23.40;55.17;102372.34;5012595;28;20054;-38
2022/07/15 07:33:20;;;;;;;1.20;0.30;;;;;;;23.41;55.06;102366.28;5013143;28;20116;-33
2022/07/15 07:35:49;;;;;;;1.10;0.40;;;;;;;23.44;55.16;102362.75;5011957;28;20045;-33
2022/07/15 07:38:17;;;;;;;1.65;0.30;;;;;;;23.45;54.95;102358.72;5012851;28;20046;-36
2022/07/15 07:40:47;;;;;;;2.08;0.43;;;;;;;23.20;54.36;102365.50;5012591;28;20052;-34
2022/07/15 07:43:17;;;;;;;3.97;0.30;;;;;;;22.91;55.58;102370.09;5012055;28;20506;-39
2022/07/15 07:45:45;;;;;;;0.77;0.28;;;;;;;22.90;55.49;102368.44;5012598;28;20045;-34
2022/07/15 07:48:13;;;;;;;1.70;0.30;;;;;;;22.87;54.96;102371.13;5011637;28;20049;-33
2022/07/15 07:50:41;;;;;;;2.03;0.60;;;;;;;22.79;55.33;102372.84;5012381;28;20056;-34
2022/07/15 07:53:11;;;;;;;0.68;0.20;;;;;;;22.78;55.39;102376.88;5011852;28;20049;-33
2022/07/15 07:55:39;;;;;;;1.00;0.20;;;;;;;22.81;55.97;102375.34;5011316;28;20054;-34
2022/07/15 07:58:07;;;;;;;1.15;0.20;;;;;;;22.84;55.94;102386.06;5012340;28;20038;-42
2022/07/15 08:00:36;;;;;;;1.75;0.40;;;;;;;22.80;55.55;102376.53;5012103;28;20522;-35
2022/07/15 08:03:04;;;;;;;1.42;0.30;;;;;;;22.76;54.65;102376.38;5011822;28;20062;-33
2022/07/15 08:05:32;;;;;;;2.15;0.30;;;;;;;22.76;54.88;102382.06;5012099;28;20148;-40
2022/07/15 08:08:12;;;;;;;2.00;0.40;;;;;;;22.78;54.24;102378.91;5012390;28;20120;-36
2022/07/15 08:10:41;;;;;;;1.73;0.30;;;;;;;22.83;53.63;102384.38;5011182;28;20041;-35
2022/07/15 08:13:14;;;;;;;1.77;0.30;;;;;;;22.90;54.22;102385.50;5012434;28;20077;-35
2022/07/15 08:15:42;;;;;;;2.13;0.40;;;;;;;22.96;54.56;102389.00;5011988;28;20144;-40
2022/07/15 08:18:10;;;;;;;0.57;0.20;;;;;;;22.96;53.84;102386.97;5011110;28;20042;-40
2022/07/15 08:20:38;;;;;;;1.58;0.20;;;;;;;22.98;54.57;102386.63;5012012;28;20042;-43
2022/07/15 08:23:07;;;;;;;1.20;0.30;;;;;;;22.99;53.50;102391.94;5010458;28;20414;-33
2022/07/15 08:25:37;;;;;;;1.20;0.38;;;;;;;22.96;53.06;102384.13;5011393;28;20065;-39
2022/07/15 08:28:06;;;;;;;1.10;0.30;;;;;;;22.90;52.79;102391.19;5011874;28;20049;-39
2022/07/15 08:30:35;;;;;;;2.92;0.40;;;;;;;22.94;52.25;102380.78;5011145;28;20466;-38
2022/07/15 08:33:03;;;;;;;2.72;0.32;;;;;;;23.05;52.14;102389.75;5011754;28;20167;-32
2022/07/15 08:35:31;;;;;;;1.23;0.50;;;;;;;23.18;52.27;102388.63;5011839;28;20133;-34
2022/07/15 08:38:05;;;;;;;0.85;0.20;;;;;;;23.43;50.88;102383.03;5011104;28;20133;-35
2022/07/15 08:40:33;;;;;;;2.47;0.52;;;;;;;23.39;50.09;102380.03;5012213;28;20056;-33
2022/07/15 08:43:03;;;;;;;2.15;0.40;;;;;;;23.38;50.46;102386.97;5011397;28;20050;-40
2022/07/15 08:45:31;;;;;;;2.08;0.30;;;;;;;23.39;50.48;102380.03;5011256;28;20080;-41
2022/07/15 08:48:02;;;;;;;1.85;0.40;;;;;;;23.61;50.36;102376.84;5011235;28;20054;-34
2022/07/15 08:50:31;;;;;;;1.92;0.40;;;;;;;24.02;50.82;102373.03;5012072;28;20056;-33
2022/07/15 08:52:59;;;;;;;1.80;0.28;;;;;;;24.77;49.63;102383.28;5010917;28;20042;-34
2022/07/15 08:55:27;;;;;;;2.05;0.30;;;;;;;25.25;47.19;102382.34;5011635;28;20064;-34
2022/07/15 08:57:55;;;;;;;1.17;0.30;;;;;;;25.66;45.51;102373.38;5011378;28;20054;-35
2022/07/15 09:00:28;;;;;;;1.45;0.40;;;;;;;26.02;44.80;102357.16;5010940;28;20042;-37
2022/07/15 09:03:00;;;;;;;0.60;0.20;;;;;;;26.50;42.42;102355.97;5011493;28;20140;-40
2022/07/15 09:05:30;;;;;;;1.52;0.30;;;;;;;26.72;41.78;102365.91;5014712;28;20111;-37
2022/07/15 09:08:02;;;;;;;1.30;0.30;;;;;;;26.94;41.80;102358.63;5014717;28;20065;-33
2022/07/15 09:10:48;;;;;;;2.58;0.60;;;;;;;26.89;40.94;102364.63;5015816;28;20050;-36
2022/07/15 09:13:28;;;;;;;1.15;0.30;;;;;;;26.90;40.87;102366.31;5014470;28;20054;-41
2022/07/15 09:16:00;;;;;;;2.38;0.70;;;;;;;27.21;42.50;102368.22;5023882;28;20372;-37
2022/07/15 09:18:30;;;;;;;1.40;0.25;;;;;;;27.66;41.30;102361.81;5015241;28;20100;-34
2022/07/15 09:20:58;;;;;;;1.25;0.30;;;;;;;27.90;41.16;102358.59;5014707;28;20092;-34
2022/07/15 09:23:32;;;;;;;1.38;0.30;;;;;;;27.87;39.95;102361.41;5015050;28;20050;-34
2022/07/15 09:26:20;;;;;;;0.73;0.30;;;;;;;27.68;40.24;102354.50;5005609;28;20092;-34
2022/07/15 09:28:50;;;;;;;2.92;0.50;;;;;;;27.32;40.54;102352.09;5014108;28;20125;-34
2022/07/15 09:34:15;;;;;;;2.22;0.40;;;;;;;27.30;40.54;102348.78;5014285;28;20050;-39
2022/07/15 09:36:45;;;;;;;1.63;0.20;;;;;;;27.56;39.85;102346.03;5015408;28;20052;-36
2022/07/15 09:39:13;;;;;;;0.88;0.20;;;;;;;27.78;38.22;102339.50;5014801;28;20400;-36
2022/07/15 09:41:44;;;;;;;2.05;0.40;;;;;;;27.81;38.51;102342.84;5014411;28;20070;-41
2022/07/15 09:44:14;;;;;;;0.60;0.20;;;;;;;27.89;38.20;102347.50;5014604;28;20054;-33
2022/07/15 09:46:46;;;;;;;0.95;0.20;;;;;;;27.69;37.81;102341.81;5015397;28;20067;-33
2022/07/15 09:49:17;;;;;;;1.10;0.30;;;;;;;27.52;38.51;102356.63;5013999;28;20046;-33
2022/07/15 09:51:48;;;;;;;0.75;0.30;;;;;;;27.56;38.37;102345.22;5004218;28;20042;-34
2022/07/15 09:54:16;;;;;;;2.15;0.32;;;;;;;27.48;38.50;102361.44;5014283;28;20133;-34
2022/07/15 09:56:45;;;;;;;1.48;0.30;;;;;;;27.30;39.14;102351.66;5013228;28;20133;-42
2022/07/15 09:59:14;;;;;;;1.10;0.20;;;;;;;27.14;39.95;102348.88;5014027;28;20045;-40
2022/07/15 10:01:47;;;;;;;1.58;0.40;;;;;;;27.04;39.95;102350.28;5014793;28;20042;-33
2022/07/15 10:04:16;;;;;;;0.57;0.20;;;;;;;27.11;40.33;102341.03;5012858;28;20061;-37
2022/07/15 10:06:45;;;;;;;1.02;0.30;;;;;;;27.35;40.08;102339.88;5014290;28;20145;-34
2022/07/15 10:09:35;;;;;;;0.70;0.20;;;;;;;27.02;39.88;102341.22;5013827;28;20431;-33
2022/07/15 10:12:08;;;;;;;1.83;0.40;;;;;;;26.89;39.44;102336.00;5011314;28;20132;-34
2022/07/15 10:14:56;;;;;;;1.92;0.30;;;;;;;27.04;39.67;102335.13;5014381;28;20125;-34
2022/07/15 10:17:55;;;;;;;1.55;0.35;;;;;;;27.35;37.03;102334.97;5009875;28;20140;-34
2022/07/15 10:20:47;;;;;;;0.93;0.25;;;;;;;27.39;38.85;102332.16;5014213;28;20415;-35
2022/07/15 10:23:32;;;;;;;1.63;0.20;;;;;;;27.49;37.71;102334.44;5013533;28;20142;-38
2022/07/15 10:26:20;;;;;;;1.33;0.20;;;;;;;27.38;37.99;102337.06;5014700;28;20088;-34
2022/07/15 10:28:59;;;;;;;1.30;0.25;;;;;;;27.31;39.13;102336.09;5014143;28;20411;-34
2022/07/15 10:31:29;;;;;;;1.17;0.40;;;;;;;27.14;39.12;102331.66;5013281;28;20100;-37
2022/07/15 10:34:23;;;;;;;1.67;0.30;;;;;;;26.97;38.33;102326.41;5013986;28;20084;-34
2022/07/15 10:36:56;;;;;;;0.80;0.20;;;;;;;26.86;39.20;102326.13;5013864;28;20136;-43
2022/07/15 10:39:27;;;;;;;1.42;0.30;;;;;;;26.96;39.54;102322.69;5013597;28;20112;-34
2022/07/15 10:41:57;;;;;;;1.52;0.43;;;;;;;27.12;39.27;102324.66;5012515;28;20045;-38
2022/07/15 10:44:27;;;;;;;0.75;0.35;;;;;;;27.09;39.06;102318.47;5013008;28;20216;-41
2022/07/15 10:47:20;;;;;;;1.27;0.30;;;;;;;26.91;39.23;102322.13;5013367;28;20503;-34
2022/07/15 10:49:51;;;;;;;0.90;0.20;;;;;;;26.93;40.69;102325.44;5014011;28;20057;-34
2022/07/15 10:52:20;;;;;;;1.52;0.50;;;;;;;26.81;40.69;102323.53;5012634;28;20499;-35
2022/07/15 10:54:50;;;;;;;0.90;0.32;;;;;;;26.48;40.86;102328.91;5013532;28;20089;-41
2022/07/15 10:57:20;;;;;;;1.75;0.40;;;;;;;26.23;41.76;102319.69;5013121;28;20057;-42
2022/07/15 10:59:54;;;;;;;1.08;0.30;;;;;;;26.29;42.31;102329.66;5013075;28;20112;-34
2022/07/15 11:02:25;;;;;;;1.65;0.45;;;;;;;26.42;41.87;102314.03;5013183;28;20080;-35
2022/07/15 11:05:18;;;;;;;2.10;0.38;;;;;;;26.65;41.43;102317.88;5013670;28;20438;-34
2022/07/15 11:07:46;;;;;;;1.67;0.40;;;;;;;26.74;41.97;102323.41;5013055;28;20137;-33
2022/07/15 11:10:19;;;;;;;2.35;0.40;;;;;;;26.83;41.06;102317.44;5013280;28;20499;-39
2022/07/15 11:13:02;;;;;;;1.40;0.40;;;;;;;26.72;41.97;102312.31;5012357;28;20062;-39
2022/07/15 11:15:30;;;;;;;1.77;0.40;;;;;;;26.63;42.33;102316.56;5013108;28;20452;-39
2022/07/15 11:17:58;;;;;;;2.63;0.50;;;;;;;26.57;42.08;102306.63;5012760;28;20068;-36
2022/07/15 11:20:38;;;;;;;1.70;0.45;;;;;;;26.64;42.00;102315.38;5012183;28;20050;-33
2022/07/15 11:23:07;;;;;;;2.05;0.57;;;;;;;26.37;41.81;102305.75;5012663;28;20407;-31
2022/07/15 11:25:38;;;;;;;1.92;0.40;;;;;;;26.31;42.59;102324.41;5013201;28;20069;-35
2022/07/15 11:28:09;;;;;;;1.98;0.47;;;;;;;26.22;42.33;102318.00;5011163;28;20109;-31
2022/07/15 11:30:40;;;;;;;3.40;0.47;;;;;;;26.19;42.37;102318.75;5013103;28;20422;-33
2022/07/15 11:33:10;;;;;;;1.85;0.40;;;;;;;26.27;42.70;102314.88;5013011;28;20041;-38
2022/07/15 11:35:48;;;;;;;3.40;0.47;;;;;;;26.09;41.50;102317.31;5012304;28;20674;-35
2022/07/15 11:38:16;;;;;;;1.52;0.45;;;;;;;25.54;43.00;102319.09;5012728;28;20077;-35
2022/07/15 11:46:18;;;;;;;1.45;0.40;;;;;;;25.00;43.98;102311.00;5012709;28;20068;-41
2022/07/15 11:48:56;;;;;;;2.65;0.60;;;;;;;24.74;44.35;102316.31;5087494;27;20126;-33